Terminal Aerodrome Forecast
Issued by NWS Memphis, TN

Home | Current Version | Previous Version | Text Only | Print | Product List | Glossary On
Versions: 1 2 3 4 5 6 7 8 9 10 11 12 13 14 15 16
200
FTUS44 KMEG 091731
TAFJBR
TAF
KJBR 091731Z 0918/1018 32014G22KT P6SM BKN040
     FM100100 31007KT P6SM FEW050 SCT250
     FM100900 30009KT P6SM FEW030 SCT250=

USA.gov is the U.S. government's official web portal to all federal, state and local government web resources and services.